sensor_id;sensor_type;location;lat;lon;timestamp;temperature;humidity
67279;DHT22;54193;53.746;10.058;2023-06-14T00:02:14;12.70;87.48
67279;DHT22;54193;53.746;10.058;2023-06-14T00:05:01;12.65;87.60
67279;DHT22;54193;53.746;10.058;2023-06-14T00:07:46;12.63;87.74
67279;DHT22;54193;53.746;10.058;2023-06-14T00:10:34;12.61;87.84
67279;DHT22;54193;53.746;10.058;2023-06-14T00:13:20;12.60;87.81
67279;DHT22;54193;53.746;10.058;2023-06-14T00:16:06;12.56;87.97
67279;DHT22;54193;53.746;10.058;2023-06-14T00:18:52;12.54;88.20
67279;DHT22;54193;53.746;10.058;2023-06-14T00:21:38;12.49;88.36
67279;DHT22;54193;53.746;10.058;2023-06-14T00:24:23;12.50;88.51
67279;DHT22;54193;53.746;10.058;2023-06-14T00:27:09;12.58;88.17
67279;DHT22;54193;53.746;10.058;2023-06-14T00:29:55;12.44;88.49
67279;DHT22;54193;53.746;10.058;2023-06-14T00:32:40;12.37;88.53
67279;DHT22;54193;53.746;10.058;2023-06-14T00:35:28;12.37;88.59
67279;DHT22;54193;53.746;10.058;2023-06-14T00:38:14;12.36;88.74
67279;DHT22;54193;53.746;10.058;2023-06-14T00:40:59;12.36;88.95
67279;DHT22;54193;53.746;10.058;2023-06-14T00:43:45;12.28;88.95
67279;DHT22;54193;53.746;10.058;2023-06-14T00:46:31;12.34;88.86
67279;DHT22;54193;53.746;10.058;2023-06-14T00:49:17;12.26;89.03
67279;DHT22;54193;53.746;10.058;2023-06-14T00:52:04;12.25;89.10
67279;DHT22;54193;53.746;10.058;2023-06-14T00:54:51;12.28;89.12
67279;DHT22;54193;53.746;10.058;2023-06-14T00:57:37;12.25;89.16
67279;DHT22;54193;53.746;10.058;2023-06-14T01:00:23;12.15;89.41
67279;DHT22;54193;53.746;10.058;2023-06-14T01:03:09;12.05;89.47
67279;DHT22;54193;53.746;10.058;2023-06-14T01:12:53;12.01;90.13
67279;DHT22;54193;53.746;10.058;2023-06-14T01:15:43;11.98;90.25
67279;DHT22;54193;53.746;10.058;2023-06-14T01:18:29;11.94;90.37
67279;DHT22;54193;53.746;10.058;2023-06-14T01:21:22;12.03;90.66
67279;DHT22;54193;53.746;10.058;2023-06-14T01:24:09;12.03;90.66
67279;DHT22;54193;53.746;10.058;2023-06-14T01:26:56;11.96;90.62
67279;DHT22;54193;53.746;10.058;2023-06-14T01:29:42;11.96;90.96
67279;DHT22;54193;53.746;10.058;2023-06-14T01:32:31;11.94;90.93
67279;DHT22;54193;53.746;10.058;2023-06-14T01:35:17;11.89;90.72
67279;DHT22;54193;53.746;10.058;2023-06-14T01:38:03;11.85;90.80
67279;DHT22;54193;53.746;10.058;2023-06-14T01:40:50;11.75;91.02
67279;DHT22;54193;53.746;10.058;2023-06-14T01:43:38;11.75;91.07
67279;DHT22;54193;53.746;10.058;2023-06-14T01:46:25;11.91;91.16
67279;DHT22;54193;53.746;10.058;2023-06-14T01:49:11;11.70;91.18
67279;DHT22;54193;53.746;10.058;2023-06-14T01:51:57;11.82;91.46
67279;DHT22;54193;53.746;10.058;2023-06-14T01:54:42;11.84;91.56
67279;DHT22;54193;53.746;10.058;2023-06-14T01:57:28;11.84;91.70
67279;DHT22;54193;53.746;10.058;2023-06-14T02:00:15;11.88;91.79
67279;DHT22;54193;53.746;10.058;2023-06-14T02:03:01;11.88;91.74
67279;DHT22;54193;53.746;10.058;2023-06-14T02:05:47;11.85;91.93
67279;DHT22;54193;53.746;10.058;2023-06-14T02:08:33;11.78;91.88
67279;DHT22;54193;53.746;10.058;2023-06-14T02:11:18;11.82;91.95
67279;DHT22;54193;53.746;10.058;2023-06-14T02:14:04;11.86;92.14
67279;DHT22;54193;53.746;10.058;2023-06-14T02:16:50;11.85;91.98
67279;DHT22;54193;53.746;10.058;2023-06-14T02:19:35;11.81;92.02
67279;DHT22;54193;53.746;10.058;2023-06-14T02:22:21;11.81;92.25
67279;DHT22;54193;53.746;10.058;2023-06-14T02:25:07;11.82;92.25
67279;DHT22;54193;53.746;10.058;2023-06-14T02:27:54;11.79;92.11
67279;DHT22;54193;53.746;10.058;2023-06-14T02:30:40;11.74;92.09
67279;DHT22;54193;53.746;10.058;2023-06-14T02:33:26;11.75;92.19
67279;DHT22;54193;53.746;10.058;2023-06-14T02:36:11;11.70;92.19
67279;DHT22;54193;53.746;10.058;2023-06-14T02:38:57;11.71;92.29
67279;DHT22;54193;53.746;10.058;2023-06-14T02:41:43;11.71;92.42
67279;DHT22;54193;53.746;10.058;2023-06-14T02:44:28;11.70;92.47
67279;DHT22;54193;53.746;10.058;2023-06-14T02:47:15;11.73;92.61
67279;DHT22;54193;53.746;10.058;2023-06-14T02:50:01;11.71;92.68
67279;DHT22;54193;53.746;10.058;2023-06-14T02:52:46;11.68;92.59
67279;DHT22;54193;53.746;10.058;2023-06-14T02:55:32;11.65;92.75
67279;DHT22;54193;53.746;10.058;2023-06-14T02:58:18;11.65;92.72
67279;DHT22;54193;53.746;10.058;2023-06-14T03:01:05;11.67;92.89
67279;DHT22;54193;53.746;10.058;2023-06-14T03:03:53;11.70;92.83
67279;DHT22;54193;53.746;10.058;2023-06-14T03:06:38;11.68;92.72
67279;DHT22;54193;53.746;10.058;2023-06-14T03:09:24;11.70;92.63
67279;DHT22;54193;53.746;10.058;2023-06-14T03:12:11;11.65;92.53
67279;DHT22;54193;53.746;10.058;2023-06-14T03:14:56;11.63;92.85
67279;DHT22;54193;53.746;10.058;2023-06-14T03:17:42;11.60;92.83
67279;DHT22;54193;53.746;10.058;2023-06-14T03:20:30;11.60;92.91
67279;DHT22;54193;53.746;10.058;2023-06-14T03:23:18;11.53;92.79
67279;DHT22;54193;53.746;10.058;2023-06-14T03:26:04;11.54;92.80
67279;DHT22;54193;53.746;10.058;2023-06-14T03:28:50;11.54;92.81
67279;DHT22;54193;53.746;10.058;2023-06-14T03:31:35;11.51;92.73
67279;DHT22;54193;53.746;10.058;2023-06-14T03:34:21;11.67;92.94
67279;DHT22;54193;53.746;10.058;2023-06-14T03:37:07;11.65;92.92
67279;DHT22;54193;53.746;10.058;2023-06-14T03:39:52;11.70;92.92
67279;DHT22;54193;53.746;10.058;2023-06-14T03:42:38;11.74;93.03
67279;DHT22;54193;53.746;10.058;2023-06-14T03:45:24;11.78;92.86
67279;DHT22;54193;53.746;10.058;2023-06-14T03:48:09;11.75;92.85
67279;DHT22;54193;53.746;10.058;2023-06-14T03:50:55;11.77;92.88
67279;DHT22;54193;53.746;10.058;2023-06-14T03:53:41;11.78;92.91
67279;DHT22;54193;53.746;10.058;2023-06-14T03:56:27;11.95;92.83
67279;DHT22;54193;53.746;10.058;2023-06-14T03:59:12;11.98;92.76
67279;DHT22;54193;53.746;10.058;2023-06-14T04:01:58;12.01;92.74
67279;DHT22;54193;53.746;10.058;2023-06-14T04:04:44;12.11;92.64
67279;DHT22;54193;53.746;10.058;2023-06-14T04:07:30;12.15;92.25
67279;DHT22;54193;53.746;10.058;2023-06-14T04:10:16;12.36;92.15
67279;DHT22;54193;53.746;10.058;2023-06-14T04:13:02;12.57;91.09
67279;DHT22;54193;53.746;10.058;2023-06-14T04:15:47;12.64;90.76
67279;DHT22;54193;53.746;10.058;2023-06-14T04:18:33;12.56;91.12
67279;DHT22;54193;53.746;10.058;2023-06-14T04:21:18;12.56;91.00
67279;DHT22;54193;53.746;10.058;2023-06-14T04:24:04;12.61;90.97
67279;DHT22;54193;53.746;10.058;2023-06-14T04:26:50;13.04;90.80
67279;DHT22;54193;53.746;10.058;2023-06-14T04:29:37;13.01;89.75
67279;DHT22;54193;53.746;10.058;2023-06-14T04:32:26;12.92;89.96
67279;DHT22;54193;53.746;10.058;2023-06-14T04:35:11;12.87;90.12
67279;DHT22;54193;53.746;10.058;2023-06-14T04:37:58;12.88;90.26
67279;DHT22;54193;53.746;10.058;2023-06-14T04:40:43;12.91;90.48
67279;DHT22;54193;53.746;10.058;2023-06-14T04:43:29;12.92;90.30
67279;DHT22;54193;53.746;10.058;2023-06-14T04:46:15;12.94;90.46
67279;DHT22;54193;53.746;10.058;2023-06-14T04:49:02;12.98;90.64
67279;DHT22;54193;53.746;10.058;2023-06-14T04:51:48;13.11;90.63
67279;DHT22;54193;53.746;10.058;2023-06-14T04:54:36;13.16;90.10
67279;DHT22;54193;53.746;10.058;2023-06-14T04:57:28;13.33;90.16
67279;DHT22;54193;53.746;10.058;2023-06-14T05:00:14;13.36;89.99
67279;DHT22;54193;53.746;10.058;2023-06-14T05:03:00;13.35;89.96
67279;DHT22;54193;53.746;10.058;2023-06-14T05:05:46;13.38;89.86
67279;DHT22;54193;53.746;10.058;2023-06-14T05:08:32;13.50;89.89
67279;DHT22;54193;53.746;10.058;2023-06-14T05:11:17;13.69;89.50
67279;DHT22;54193;53.746;10.058;2023-06-14T05:14:03;13.77;89.06
67279;DHT22;54193;53.746;10.058;2023-06-14T05:16:49;13.82;88.65
67279;DHT22;54193;53.746;10.058;2023-06-14T05:19:35;13.98;88.44
67279;DHT22;54193;53.746;10.058;2023-06-14T05:22:22;14.02;88.47
67279;DHT22;54193;53.746;10.058;2023-06-14T05:25:08;14.07;87.47
67279;DHT22;54193;53.746;10.058;2023-06-14T05:27:54;14.24;87.23
67279;DHT22;54193;53.746;10.058;2023-06-14T05:30:39;14.25;86.70
67279;DHT22;54193;53.746;10.058;2023-06-14T05:33:25;14.37;86.05
67279;DHT22;54193;53.746;10.058;2023-06-14T05:36:11;14.42;86.53
67279;DHT22;54193;53.746;10.058;2023-06-14T05:38:56;14.50;86.29
67279;DHT22;54193;53.746;10.058;2023-06-14T05:41:45;14.64;85.56
67279;DHT22;54193;53.746;10.058;2023-06-14T05:44:30;14.73;84.77
67279;DHT22;54193;53.746;10.058;2023-06-14T05:47:16;14.80;84.30
67279;DHT22;54193;53.746;10.058;2023-06-14T05:50:02;14.87;83.63
67279;DHT22;54193;53.746;10.058;2023-06-14T05:52:47;15.08;83.05
67279;DHT22;54193;53.746;10.058;2023-06-14T05:55:33;15.07;82.40
67279;DHT22;54193;53.746;10.058;2023-06-14T05:58:18;15.31;82.61
67279;DHT22;54193;53.746;10.058;2023-06-14T06:01:04;15.46;81.76
67279;DHT22;54193;53.746;10.058;2023-06-14T06:03:50;15.49;81.28
67279;DHT22;54193;53.746;10.058;2023-06-14T06:06:35;15.86;80.52
67279;DHT22;54193;53.746;10.058;2023-06-14T06:09:21;16.29;78.28
67279;DHT22;54193;53.746;10.058;2023-06-14T06:12:07;16.96;76.65
67279;DHT22;54193;53.746;10.058;2023-06-14T06:14:52;16.90;76.27
67279;DHT22;54193;53.746;10.058;2023-06-14T06:17:38;17.20;75.43
67279;DHT22;54193;53.746;10.058;2023-06-14T06:20:24;17.71;74.83
67279;DHT22;54193;53.746;10.058;2023-06-14T06:23:13;17.80;73.68
67279;DHT22;54193;53.746;10.058;2023-06-14T06:25:59;17.99;72.68
67279;DHT22;54193;53.746;10.058;2023-06-14T06:28:45;17.86;73.72
67279;DHT22;54193;53.746;10.058;2023-06-14T06:31:30;18.00;72.89
67279;DHT22;54193;53.746;10.058;2023-06-14T06:34:17;18.33;71.88
67279;DHT22;54193;53.746;10.058;2023-06-14T06:37:03;18.21;71.51
67279;DHT22;54193;53.746;10.058;2023-06-14T06:39:49;18.66;70.61
67279;DHT22;54193;53.746;10.058;2023-06-14T06:42:34;18.85;69.59
67279;DHT22;54193;53.746;10.058;2023-06-14T06:45:20;18.65;69.62
67279;DHT22;54193;53.746;10.058;2023-06-14T06:48:06;18.48;69.82
67279;DHT22;54193;53.746;10.058;2023-06-14T06:50:52;18.62;69.89
67279;DHT22;54193;53.746;10.058;2023-06-14T06:53:37;19.41;66.20
67279;DHT22;54193;53.746;10.058;2023-06-14T06:56:23;19.51;64.49
67279;DHT22;54193;53.746;10.058;2023-06-14T06:59:09;19.82;63.87
67279;DHT22;54193;53.746;10.058;2023-06-14T07:01:55;20.36;63.96
67279;DHT22;54193;53.746;10.058;2023-06-14T07:04:41;20.36;64.26
67279;DHT22;54193;53.746;10.058;2023-06-14T07:07:27;20.58;61.08
67279;DHT22;54193;53.746;10.058;2023-06-14T07:10:12;19.89;63.28
67279;DHT22;54193;53.746;10.058;2023-06-14T07:12:58;19.57;63.01
67279;DHT22;54193;53.746;10.058;2023-06-14T07:15:43;19.41;63.78
67279;DHT22;54193;53.746;10.058;2023-06-14T07:18:29;20.24;61.76
67279;DHT22;54193;53.746;10.058;2023-06-14T07:21:16;20.51;60.85
67279;DHT22;54193;53.746;10.058;2023-06-14T07:24:01;20.75;60.12
67279;DHT22;54193;53.746;10.058;2023-06-14T07:26:47;20.94;57.09
67279;DHT22;54193;53.746;10.058;2023-06-14T07:29:34;21.15;56.20
67279;DHT22;54193;53.746;10.058;2023-06-14T07:32:20;20.61;56.86
67279;DHT22;54193;53.746;10.058;2023-06-14T07:35:06;20.52;56.94
67279;DHT22;54193;53.746;10.058;2023-06-14T07:37:52;21.70;56.66
67279;DHT22;54193;53.746;10.058;2023-06-14T07:40:38;23.05;52.15
67279;DHT22;54193;53.746;10.058;2023-06-14T07:43:23;22.59;51.83
67279;DHT22;54193;53.746;10.058;2023-06-14T07:46:09;22.47;51.54
67279;DHT22;54193;53.746;10.058;2023-06-14T07:48:55;20.95;55.64
67279;DHT22;54193;53.746;10.058;2023-06-14T07:51:40;22.01;53.64
67279;DHT22;54193;53.746;10.058;2023-06-14T07:54:26;21.94;52.79
67279;DHT22;54193;53.746;10.058;2023-06-14T07:57:13;22.90;50.58
67279;DHT22;54193;53.746;10.058;2023-06-14T07:59:58;23.70;48.26
67279;DHT22;54193;53.746;10.058;2023-06-14T08:02:44;23.81;48.22
67279;DHT22;54193;53.746;10.058;2023-06-14T08:05:30;23.21;49.33
67279;DHT22;54193;53.746;10.058;2023-06-14T08:08:16;21.18;53.05
67279;DHT22;54193;53.746;10.058;2023-06-14T08:11:01;23.59;49.49
67279;DHT22;54193;53.746;10.058;2023-06-14T08:13:47;24.31;47.88
67279;DHT22;54193;53.746;10.058;2023-06-14T08:16:33;23.88;47.52
67279;DHT22;54193;53.746;10.058;2023-06-14T08:19:18;21.78;51.07
67279;DHT22;54193;53.746;10.058;2023-06-14T08:22:05;21.63;52.44
67279;DHT22;54193;53.746;10.058;2023-06-14T08:24:50;23.60;49.48
67279;DHT22;54193;53.746;10.058;2023-06-14T08:27:36;22.45;52.03
67279;DHT22;54193;53.746;10.058;2023-06-14T08:30:22;21.73;52.62
67279;DHT22;54193;53.746;10.058;2023-06-14T08:33:08;21.43;53.23
67279;DHT22;54193;53.746;10.058;2023-06-14T08:35:54;20.85;54.24
67279;DHT22;54193;53.746;10.058;2023-06-14T08:38:39;21.80;53.51
67279;DHT22;54193;53.746;10.058;2023-06-14T08:41:25;21.55;51.92
67279;DHT22;54193;53.746;10.058;2023-06-14T08:44:11;22.10;50.73
67279;DHT22;54193;53.746;10.058;2023-06-14T08:46:57;21.71;52.11
67279;DHT22;54193;53.746;10.058;2023-06-14T08:49:46;22.19;51.58
67279;DHT22;54193;53.746;10.058;2023-06-14T08:52:37;21.75;51.19
67279;DHT22;54193;53.746;10.058;2023-06-14T08:55:26;21.80;51.00
67279;DHT22;54193;53.746;10.058;2023-06-14T08:58:12;23.11;48.22
67279;DHT22;54193;53.746;10.058;2023-06-14T09:01:01;24.04;46.02
67279;DHT22;54193;53.746;10.058;2023-06-14T09:03:48;23.45;47.07
67279;DHT22;54193;53.746;10.058;2023-06-14T09:06:34;23.23;48.05
67279;DHT22;54193;53.746;10.058;2023-06-14T09:09:22;22.84;48.13
67279;DHT22;54193;53.746;10.058;2023-06-14T09:12:14;22.77;47.09
67279;DHT22;54193;53.746;10.058;2023-06-14T09:14:59;24.00;45.11
67279;DHT22;54193;53.746;10.058;2023-06-14T09:17:45;22.52;48.14
67279;DHT22;54193;53.746;10.058;2023-06-14T09:20:31;24.63;46.26
67279;DHT22;54193;53.746;10.058;2023-06-14T09:23:20;22.83;46.79
67279;DHT22;54193;53.746;10.058;2023-06-14T09:26:18;22.92;47.58
67279;DHT22;54193;53.746;10.058;2023-06-14T09:29:05;24.05;45.90
67279;DHT22;54193;53.746;10.058;2023-06-14T09:31:51;23.33;45.95
67279;DHT22;54193;53.746;10.058;2023-06-14T09:34:36;22.95;48.34
67279;DHT22;54193;53.746;10.058;2023-06-14T09:37:30;24.86;43.49
67279;DHT22;54193;53.746;10.058;2023-06-14T09:40:20;26.67;41.53
67279;DHT22;54193;53.746;10.058;2023-06-14T09:43:06;25.70;43.58
67279;DHT22;54193;53.746;10.058;2023-06-14T09:45:55;27.51;39.32
67279;DHT22;54193;53.746;10.058;2023-06-14T09:48:41;27.71;37.73
67279;DHT22;54193;53.746;10.058;2023-06-14T09:51:30;27.44;41.69
67279;DHT22;54193;53.746;10.058;2023-06-14T09:54:16;27.24;40.94
67279;DHT22;54193;53.746;10.058;2023-06-14T09:57:07;27.53;40.48
67279;DHT22;54193;53.746;10.058;2023-06-14T09:59:57;28.17;37.56
67279;DHT22;54193;53.746;10.058;2023-06-14T10:02:49;25.85;39.92
67279;DHT22;54193;53.746;10.058;2023-06-14T10:05:37;23.65;45.48
67279;DHT22;54193;53.746;10.058;2023-06-14T10:08:27;23.26;46.64
67279;DHT22;54193;53.746;10.058;2023-06-14T10:11:13;22.42;48.11
67279;DHT22;54193;53.746;10.058;2023-06-14T10:13:59;22.50;47.43
67279;DHT22;54193;53.746;10.058;2023-06-14T10:16:57;23.36;46.94
67279;DHT22;54193;53.746;10.058;2023-06-14T10:19:50;22.60;48.71
67279;DHT22;54193;53.746;10.058;2023-06-14T10:22:47;22.35;49.81
67279;DHT22;54193;53.746;10.058;2023-06-14T10:25:34;22.15;50.03
67279;DHT22;54193;53.746;10.058;2023-06-14T10:28:21;22.32;50.53
67279;DHT22;54193;53.746;10.058;2023-06-14T10:31:11;22.15;50.79
67279;DHT22;54193;53.746;10.058;2023-06-14T10:33:59;21.80;50.26
67279;DHT22;54193;53.746;10.058;2023-06-14T10:36:44;22.56;48.61
67279;DHT22;54193;53.746;10.058;2023-06-14T10:39:30;23.39;47.79
67279;DHT22;54193;53.746;10.058;2023-06-14T10:42:16;22.46;48.46
67279;DHT22;54193;53.746;10.058;2023-06-14T10:45:02;22.45;48.74
67279;DHT22;54193;53.746;10.058;2023-06-14T10:47:49;22.56;49.28
67279;DHT22;54193;53.746;10.058;2023-06-14T10:50:41;22.04;49.98
67279;DHT22;54193;53.746;10.058;2023-06-14T10:53:28;22.67;48.79
67279;DHT22;54193;53.746;10.058;2023-06-14T10:56:27;22.49;48.96
67279;DHT22;54193;53.746;10.058;2023-06-14T10:59:14;22.75;48.58
67279;DHT22;54193;53.746;10.058;2023-06-14T11:05:08;22.84;47.04
67279;DHT22;54193;53.746;10.058;2023-06-14T11:08:18;22.47;48.33
67279;DHT22;54193;53.746;10.058;2023-06-14T11:11:08;22.37;48.01
67279;DHT22;54193;53.746;10.058;2023-06-14T11:13:54;22.54;47.05
67279;DHT22;54193;53.746;10.058;2023-06-14T11:16:40;22.75;47.50
67279;DHT22;54193;53.746;10.058;2023-06-14T11:19:25;22.78;46.94
67279;DHT22;54193;53.746;10.058;2023-06-14T11:22:14;22.91;46.89
67279;DHT22;54193;53.746;10.058;2023-06-14T11:25:01;22.97;45.89
67279;DHT22;54193;53.746;10.058;2023-06-14T11:27:49;23.14;46.65
67279;DHT22;54193;53.746;10.058;2023-06-14T11:30:35;22.91;46.49
67279;DHT22;54193;53.746;10.058;2023-06-14T11:33:22;22.61;46.88
67279;DHT22;54193;53.746;10.058;2023-06-14T11:36:09;22.61;46.73
67279;DHT22;54193;53.746;10.058;2023-06-14T11:39:00;22.43;47.12
67279;DHT22;54193;53.746;10.058;2023-06-14T11:41:46;23.00;46.32
67279;DHT22;54193;53.746;10.058;2023-06-14T11:44:31;23.52;46.54
67279;DHT22;54193;53.746;10.058;2023-06-14T11:47:17;23.94;44.41
67279;DHT22;54193;53.746;10.058;2023-06-14T11:50:04;23.92;45.00
67279;DHT22;54193;53.746;10.058;2023-06-14T11:52:58;22.92;45.38
67279;DHT22;54193;53.746;10.058;2023-06-14T11:55:52;22.91;45.71
67279;DHT22;54193;53.746;10.058;2023-06-14T11:58:38;23.25;44.95
67279;DHT22;54193;53.746;10.058;2023-06-14T12:01:24;23.36;46.37
67279;DHT22;54193;53.746;10.058;2023-06-14T12:04:11;22.77;45.74
67279;DHT22;54193;53.746;10.058;2023-06-14T12:06:56;22.47;46.30
67279;DHT22;54193;53.746;10.058;2023-06-14T12:12:57;23.14;45.47
67279;DHT22;54193;53.746;10.058;2023-06-14T12:15:44;22.84;45.33
67279;DHT22;54193;53.746;10.058;2023-06-14T12:18:36;22.97;45.40
67279;DHT22;54193;53.746;10.058;2023-06-14T12:21:23;23.39;44.91
67279;DHT22;54193;53.746;10.058;2023-06-14T12:24:09;23.48;44.58
67279;DHT22;54193;53.746;10.058;2023-06-14T12:26:58;23.33;45.07
67279;DHT22;54193;53.746;10.058;2023-06-14T12:29:45;23.46;45.35
67279;DHT22;54193;53.746;10.058;2023-06-14T12:32:30;23.83;45.70
67279;DHT22;54193;53.746;10.058;2023-06-14T12:35:16;23.97;43.60
67279;DHT22;54193;53.746;10.058;2023-06-14T12:38:02;23.38;44.42
67279;DHT22;54193;53.746;10.058;2023-06-14T12:40:49;23.30;44.24
67279;DHT22;54193;53.746;10.058;2023-06-14T12:43:34;23.07;44.48
67279;DHT22;54193;53.746;10.058;2023-06-14T12:46:20;23.19;44.69
67279;DHT22;54193;53.746;10.058;2023-06-14T12:49:08;23.26;44.61
67279;DHT22;54193;53.746;10.058;2023-06-14T12:51:53;23.14;44.03
67279;DHT22;54193;53.746;10.058;2023-06-14T12:54:39;23.23;43.54
67279;DHT22;54193;53.746;10.058;2023-06-14T12:57:25;23.81;42.56
67279;DHT22;54193;53.746;10.058;2023-06-14T13:00:11;23.02;43.10
67279;DHT22;54193;53.746;10.058;2023-06-14T13:02:58;22.64;44.42
67279;DHT22;54193;53.746;10.058;2023-06-14T13:05:43;22.50;45.61
67279;DHT22;54193;53.746;10.058;2023-06-14T13:08:29;23.02;45.40
67279;DHT22;54193;53.746;10.058;2023-06-14T13:11:16;23.45;42.32
67279;DHT22;54193;53.746;10.058;2023-06-14T13:14:01;23.49;42.41
67279;DHT22;54193;53.746;10.058;2023-06-14T13:16:47;23.59;41.54
67279;DHT22;54193;53.746;10.058;2023-06-14T13:19:32;23.77;41.54
67279;DHT22;54193;53.746;10.058;2023-06-14T13:22:18;23.35;41.57
67279;DHT22;54193;53.746;10.058;2023-06-14T13:25:04;23.05;42.25
67279;DHT22;54193;53.746;10.058;2023-06-14T13:27:50;23.42;41.24
67279;DHT22;54193;53.746;10.058;2023-06-14T13:30:36;23.69;41.37
67279;DHT22;54193;53.746;10.058;2023-06-14T13:33:22;24.01;41.21
67279;DHT22;54193;53.746;10.058;2023-06-14T13:36:09;23.59;40.60
67279;DHT22;54193;53.746;10.058;2023-06-14T13:38:55;23.60;39.81
67279;DHT22;54193;53.746;10.058;2023-06-14T13:41:41;23.78;39.94
67279;DHT22;54193;53.746;10.058;2023-06-14T13:44:27;23.43;40.60
67279;DHT22;54193;53.746;10.058;2023-06-14T13:47:12;23.71;41.05
67279;DHT22;54193;53.746;10.058;2023-06-14T13:49:58;23.38;40.93
67279;DHT22;54193;53.746;10.058;2023-06-14T13:52:44;23.84;40.74
67279;DHT22;54193;53.746;10.058;2023-06-14T13:55:29;23.48;40.69
67279;DHT22;54193;53.746;10.058;2023-06-14T13:58:15;23.65;40.82
67279;DHT22;54193;53.746;10.058;2023-06-14T14:01:01;23.46;41.46
67279;DHT22;54193;53.746;10.058;2023-06-14T14:03:48;23.66;42.08
67279;DHT22;54193;53.746;10.058;2023-06-14T14:06:35;23.52;40.90
67279;DHT22;54193;53.746;10.058;2023-06-14T14:09:20;23.78;40.90
67279;DHT22;54193;53.746;10.058;2023-06-14T14:12:06;23.63;40.62
67279;DHT22;54193;53.746;10.058;2023-06-14T14:14:52;23.84;40.28
67279;DHT22;54193;53.746;10.058;2023-06-14T14:17:38;23.67;40.19
67279;DHT22;54193;53.746;10.058;2023-06-14T14:20:24;23.65;40.39
67279;DHT22;54193;53.746;10.058;2023-06-14T14:23:10;23.69;40.25
67279;DHT22;54193;53.746;10.058;2023-06-14T14:25:55;23.49;40.61
67279;DHT22;54193;53.746;10.058;2023-06-14T14:28:42;23.60;40.02
67279;DHT22;54193;53.746;10.058;2023-06-14T14:31:27;23.76;41.03
67279;DHT22;54193;53.746;10.058;2023-06-14T14:34:13;24.01;40.13
67279;DHT22;54193;53.746;10.058;2023-06-14T14:36:59;24.01;40.11
67279;DHT22;54193;53.746;10.058;2023-06-14T14:39:45;23.52;40.40
67279;DHT22;54193;53.746;10.058;2023-06-14T14:42:31;23.56;40.75
67279;DHT22;54193;53.746;10.058;2023-06-14T14:45:16;23.48;40.25
67279;DHT22;54193;53.746;10.058;2023-06-14T14:48:02;23.45;40.56
67279;DHT22;54193;53.746;10.058;2023-06-14T14:50:48;23.62;40.58
67279;DHT22;54193;53.746;10.058;2023-06-14T14:53:34;23.76;40.05
67279;DHT22;54193;53.746;10.058;2023-06-14T14:56:19;24.31;40.11
67279;DHT22;54193;53.746;10.058;2023-06-14T14:59:05;24.55;38.78
67279;DHT22;54193;53.746;10.058;2023-06-14T15:01:51;24.38;38.35
67279;DHT22;54193;53.746;10.058;2023-06-14T15:04:37;24.01;39.00
67279;DHT22;54193;53.746;10.058;2023-06-14T15:07:23;24.28;38.62
67279;DHT22;54193;53.746;10.058;2023-06-14T15:10:09;24.33;38.71
67279;DHT22;54193;53.746;10.058;2023-06-14T15:12:55;24.69;38.06
67279;DHT22;54193;53.746;10.058;2023-06-14T15:15:40;24.68;38.29
67279;DHT22;54193;53.746;10.058;2023-06-14T15:18:26;24.11;38.38
67279;DHT22;54193;53.746;10.058;2023-06-14T15:21:12;24.01;38.72
67279;DHT22;54193;53.746;10.058;2023-06-14T15:23:57;24.03;38.23
67279;DHT22;54193;53.746;10.058;2023-06-14T15:26:43;23.70;39.37
67279;DHT22;54193;53.746;10.058;2023-06-14T15:29:29;23.94;39.20
67279;DHT22;54193;53.746;10.058;2023-06-14T15:32:14;24.58;38.54
67279;DHT22;54193;53.746;10.058;2023-06-14T15:35:00;24.75;38.74
67279;DHT22;54193;53.746;10.058;2023-06-14T15:37:47;24.26;38.60
67279;DHT22;54193;53.746;10.058;2023-06-14T15:40:33;23.90;39.47
67279;DHT22;54193;53.746;10.058;2023-06-14T15:43:19;23.71;39.44
67279;DHT22;54193;53.746;10.058;2023-06-14T15:46:05;24.00;39.15
67279;DHT22;54193;53.746;10.058;2023-06-14T15:48:50;24.49;38.23
67279;DHT22;54193;53.746;10.058;2023-06-14T15:51:36;23.98;39.78
67279;DHT22;54193;53.746;10.058;2023-06-14T15:54:22;23.84;40.10
67279;DHT22;54193;53.746;10.058;2023-06-14T15:57:08;23.63;40.14
67279;DHT22;54193;53.746;10.058;2023-06-14T15:59:54;23.46;39.33
67279;DHT22;54193;53.746;10.058;2023-06-14T16:02:39;23.16;39.97
67279;DHT22;54193;53.746;10.058;2023-06-14T16:05:25;22.70;40.73
67279;DHT22;54193;53.746;10.058;2023-06-14T16:08:11;22.50;40.75
67279;DHT22;54193;53.746;10.058;2023-06-14T16:10:56;22.49;41.25
67279;DHT22;54193;53.746;10.058;2023-06-14T16:13:42;22.46;41.44
67279;DHT22;54193;53.746;10.058;2023-06-14T16:16:28;22.37;41.30
67279;DHT22;54193;53.746;10.058;2023-06-14T16:19:13;22.42;41.15
67279;DHT22;54193;53.746;10.058;2023-06-14T16:21:59;22.22;41.40
67279;DHT22;54193;53.746;10.058;2023-06-14T16:24:44;22.36;41.21
67279;DHT22;54193;53.746;10.058;2023-06-14T16:27:30;22.23;41.51
67279;DHT22;54193;53.746;10.058;2023-06-14T16:30:16;22.20;41.48
67279;DHT22;54193;53.746;10.058;2023-06-14T16:33:01;22.19;42.63
67279;DHT22;54193;53.746;10.058;2023-06-14T16:35:47;22.19;42.84
67279;DHT22;54193;53.746;10.058;2023-06-14T16:38:32;22.09;41.68
67279;DHT22;54193;53.746;10.058;2023-06-14T16:41:18;22.05;41.74
67279;DHT22;54193;53.746;10.058;2023-06-14T16:44:04;21.84;41.78
67279;DHT22;54193;53.746;10.058;2023-06-14T16:46:50;21.97;41.90
67279;DHT22;54193;53.746;10.058;2023-06-14T16:49:36;22.06;42.44
67279;DHT22;54193;53.746;10.058;2023-06-14T16:52:21;22.16;42.09
67279;DHT22;54193;53.746;10.058;2023-06-14T16:55:08;22.08;40.83
67279;DHT22;54193;53.746;10.058;2023-06-14T16:57:53;22.05;41.56
67279;DHT22;54193;53.746;10.058;2023-06-14T17:00:39;21.98;41.86
67279;DHT22;54193;53.746;10.058;2023-06-14T17:03:25;21.99;41.94
67279;DHT22;54193;53.746;10.058;2023-06-14T17:06:11;22.04;42.18
67279;DHT22;54193;53.746;10.058;2023-06-14T17:08:57;21.87;41.74
67279;DHT22;54193;53.746;10.058;2023-06-14T17:11:42;21.95;41.24
67279;DHT22;54193;53.746;10.058;2023-06-14T17:14:28;21.92;40.60
67279;DHT22;54193;53.746;10.058;2023-06-14T17:17:14;21.73;39.55
67279;DHT22;54193;53.746;10.058;2023-06-14T17:19:59;21.47;38.91
67279;DHT22;54193;53.746;10.058;2023-06-14T17:22:45;21.44;39.58
67279;DHT22;54193;53.746;10.058;2023-06-14T17:25:30;21.57;38.94
67279;DHT22;54193;53.746;10.058;2023-06-14T17:28:16;21.42;39.52